Fabius, Alabama
Current Conditions -  °F | °C
As of 7:35 PM on Sunday 23 Nov 2014 (Local Time) from K4A6 Reporting Station
Overcast Overcast  
Wind Chill: 61°   Ceiling: 5000
Heat Index: 61°   Visibility: 10mi
Dew Point: 57°   Wind: 8mph
Humidity: 88%   Direction: 210°SSW
Pressure: 29.59"   Gusts: NA
Location:  34.8105°N, 85.7775°W
Report Text: K4A6 240135Z AUTO 21007KT 180V240 10SM FEW022 SCT036 OVC050 16/14 A2959 RMK AO2
Loading
Personal Weather Stations






























Interactive Weather Map New forecast layout! Learn more

10-Day Weather Forecast

Advertisements
Track Severe Weather on mobile